sensor_id;sensor_type;location;lat;lon;timestamp;P1;durP1;ratioP1;P2;durP2;ratioP2
79122;SDS011;68526;44.600;26.032;2023-04-24T00:00:06;13.00;;;10.88;;
79122;SDS011;68526;44.600;26.032;2023-04-24T00:00:24;14.43;;;10.45;;
79122;SDS011;68526;44.600;26.032;2023-04-24T00:00:40;13.80;;;10.52;;
79122;SDS011;68526;44.600;26.032;2023-04-24T00:00:56;12.60;;;10.35;;
79122;SDS011;68526;44.600;26.032;2023-04-24T00:01:12;11.85;;;10.00;;
79122;SDS011;68526;44.600;26.032;2023-04-24T00:01:28;11.65;;;10.15;;
79122;SDS011;68526;44.600;26.032;2023-04-24T00:01:45;11.68;;;10.10;;
79122;SDS011;68526;44.600;26.032;2023-04-24T00:02:01;12.38;;;10.32;;
79122;SDS011;68526;44.600;26.032;2023-04-24T00:02:17;12.70;;;10.57;;
79122;SDS011;68526;44.600;26.032;2023-04-24T00:02:33;12.23;;;10.60;;
79122;SDS011;68526;44.600;26.032;2023-04-24T00:02:49;11.90;;;10.60;;
79122;SDS011;68526;44.600;26.032;2023-04-24T00:03:05;11.55;;;10.32;;
79122;SDS011;68526;44.600;26.032;2023-04-24T00:03:22;11.88;;;9.88;;
79122;SDS011;68526;44.600;26.032;2023-04-24T00:03:38;12.00;;;10.07;;
79122;SDS011;68526;44.600;26.032;2023-04-24T00:03:54;11.75;;;10.50;;
79122;SDS011;68526;44.600;26.032;2023-04-24T00:04:11;12.38;;;10.43;;
79122;SDS011;68526;44.600;26.032;2023-04-24T00:04:29;12.90;;;10.50;;
79122;SDS011;68526;44.600;26.032;2023-04-24T00:04:46;12.05;;;10.48;;
79122;SDS011;68526;44.600;26.032;2023-04-24T00:05:04;11.40;;;10.20;;
79122;SDS011;68526;44.600;26.032;2023-04-24T00:05:20;11.85;;;10.02;;
79122;SDS011;68526;44.600;26.032;2023-04-24T00:05:37;12.73;;;10.55;;
79122;SDS011;68526;44.600;26.032;2023-04-24T00:05:52;11.82;;;10.45;;
79122;SDS011;68526;44.600;26.032;2023-04-24T00:06:09;11.32;;;9.75;;
79122;SDS011;68526;44.600;26.032;2023-04-24T00:06:25;11.93;;;9.65;;
79122;SDS011;68526;44.600;26.032;2023-04-24T00:06:49;14.98;;;10.30;;
79122;SDS011;68526;44.600;26.032;2023-04-24T00:07:09;12.80;;;10.43;;
79122;SDS011;68526;44.600;26.032;2023-04-24T00:07:24;11.73;;;10.13;;
79122;SDS011;68526;44.600;26.032;2023-04-24T00:07:41;11.35;;;10.13;;
79122;SDS011;68526;44.600;26.032;2023-04-24T00:07:58;11.40;;;10.20;;
79122;SDS011;68526;44.600;26.032;2023-04-24T00:08:13;11.55;;;10.10;;
79122;SDS011;68526;44.600;26.032;2023-04-24T00:08:29;12.30;;;10.07;;
79122;SDS011;68526;44.600;26.032;2023-04-24T00:08:45;12.05;;;9.70;;
79122;SDS011;68526;44.600;26.032;2023-04-24T00:09:01;11.55;;;9.65;;
79122;SDS011;68526;44.600;26.032;2023-04-24T00:09:18;11.48;;;9.70;;
79122;SDS011;68526;44.600;26.032;2023-04-24T00:09:34;12.13;;;10.03;;
79122;SDS011;68526;44.600;26.032;2023-04-24T00:09:50;11.48;;;10.10;;
79122;SDS011;68526;44.600;26.032;2023-04-24T00:10:06;11.60;;;9.75;;
79122;SDS011;68526;44.600;26.032;2023-04-24T00:10:23;11.98;;;10.25;;
79122;SDS011;68526;44.600;26.032;2023-04-24T00:10:39;11.70;;;10.40;;
79122;SDS011;68526;44.600;26.032;2023-04-24T00:10:55;12.07;;;9.93;;
79122;SDS011;68526;44.600;26.032;2023-04-24T00:11:12;11.45;;;10.00;;
79122;SDS011;68526;44.600;26.032;2023-04-24T00:11:27;12.10;;;10.03;;
79122;SDS011;68526;44.600;26.032;2023-04-24T00:11:44;12.38;;;9.80;;
79122;SDS011;68526;44.600;26.032;2023-04-24T00:12:00;10.85;;;9.68;;
79122;SDS011;68526;44.600;26.032;2023-04-24T00:12:18;10.55;;;9.30;;
79122;SDS011;68526;44.600;26.032;2023-04-24T00:12:35;12.15;;;9.85;;
79122;SDS011;68526;44.600;26.032;2023-04-24T00:12:52;11.95;;;10.02;;
79122;SDS011;68526;44.600;26.032;2023-04-24T00:13:08;12.55;;;9.80;;
79122;SDS011;68526;44.600;26.032;2023-04-24T00:13:24;12.77;;;9.93;;
79122;SDS011;68526;44.600;26.032;2023-04-24T00:13:39;12.20;;;10.02;;
79122;SDS011;68526;44.600;26.032;2023-04-24T00:13:55;12.70;;;10.32;;
79122;SDS011;68526;44.600;26.032;2023-04-24T00:14:11;12.38;;;10.15;;
79122;SDS011;68526;44.600;26.032;2023-04-24T00:14:35;13.32;;;9.93;;
79122;SDS011;68526;44.600;26.032;2023-04-24T00:14:50;11.93;;;10.20;;
79122;SDS011;68526;44.600;26.032;2023-04-24T00:15:07;11.18;;;9.98;;
79122;SDS011;68526;44.600;26.032;2023-04-24T00:15:24;11.20;;;9.85;;
79122;SDS011;68526;44.600;26.032;2023-04-24T00:15:39;12.55;;;9.90;;
79122;SDS011;68526;44.600;26.032;2023-04-24T00:15:55;13.97;;;10.23;;
79122;SDS011;68526;44.600;26.032;2023-04-24T00:16:12;13.73;;;10.70;;
79122;SDS011;68526;44.600;26.032;2023-04-24T00:16:28;12.95;;;10.75;;
79122;SDS011;68526;44.600;26.032;2023-04-24T00:16:44;12.07;;;10.77;;
79122;SDS011;68526;44.600;26.032;2023-04-24T00:17:00;11.40;;;10.20;;
79122;SDS011;68526;44.600;26.032;2023-04-24T00:17:17;12.20;;;9.98;;
79122;SDS011;68526;44.600;26.032;2023-04-24T00:17:35;12.60;;;10.07;;
79122;SDS011;68526;44.600;26.032;2023-04-24T00:17:51;13.00;;;10.07;;
79122;SDS011;68526;44.600;26.032;2023-04-24T00:18:08;13.10;;;10.23;;
79122;SDS011;68526;44.600;26.032;2023-04-24T00:18:24;13.77;;;10.40;;
79122;SDS011;68526;44.600;26.032;2023-04-24T00:18:40;14.20;;;10.47;;
79122;SDS011;68526;44.600;26.032;2023-04-24T00:18:56;12.55;;;9.95;;
79122;SDS011;68526;44.600;26.032;2023-04-24T00:19:12;11.23;;;9.57;;
79122;SDS011;68526;44.600;26.032;2023-04-24T00:19:29;11.68;;;10.00;;
79122;SDS011;68526;44.600;26.032;2023-04-24T00:19:45;12.02;;;10.18;;
79122;SDS011;68526;44.600;26.032;2023-04-24T00:20:01;12.63;;;9.68;;
79122;SDS011;68526;44.600;26.032;2023-04-24T00:20:19;12.57;;;9.77;;
79122;SDS011;68526;44.600;26.032;2023-04-24T00:20:36;11.38;;;9.95;;
79122;SDS011;68526;44.600;26.032;2023-04-24T00:20:52;11.25;;;10.05;;
79122;SDS011;68526;44.600;26.032;2023-04-24T00:21:09;12.45;;;10.20;;
79122;SDS011;68526;44.600;26.032;2023-04-24T00:21:25;13.18;;;10.50;;
79122;SDS011;68526;44.600;26.032;2023-04-24T00:21:41;12.10;;;9.98;;
79122;SDS011;68526;44.600;26.032;2023-04-24T00:21:58;13.02;;;9.80;;
79122;SDS011;68526;44.600;26.032;2023-04-24T00:22:14;13.23;;;9.90;;
79122;SDS011;68526;44.600;26.032;2023-04-24T00:22:30;13.77;;;10.68;;
79122;SDS011;68526;44.600;26.032;2023-04-24T00:22:46;13.85;;;10.63;;
79122;SDS011;68526;44.600;26.032;2023-04-24T00:23:03;13.23;;;10.23;;
79122;SDS011;68526;44.600;26.032;2023-04-24T00:23:19;13.15;;;10.60;;
79122;SDS011;68526;44.600;26.032;2023-04-24T00:23:35;12.73;;;10.23;;
79122;SDS011;68526;44.600;26.032;2023-04-24T00:23:51;11.85;;;9.98;;
79122;SDS011;68526;44.600;26.032;2023-04-24T00:24:08;12.13;;;9.98;;
79122;SDS011;68526;44.600;26.032;2023-04-24T00:24:25;11.93;;;9.95;;
79122;SDS011;68526;44.600;26.032;2023-04-24T00:24:41;11.38;;;9.95;;
79122;SDS011;68526;44.600;26.032;2023-04-24T00:24:56;12.97;;;10.40;;
79122;SDS011;68526;44.600;26.032;2023-04-24T00:25:12;13.30;;;10.77;;
79122;SDS011;68526;44.600;26.032;2023-04-24T00:25:28;13.45;;;10.70;;
79122;SDS011;68526;44.600;26.032;2023-04-24T00:25:44;13.48;;;10.60;;
79122;SDS011;68526;44.600;26.032;2023-04-24T00:26:01;13.32;;;10.65;;
79122;SDS011;68526;44.600;26.032;2023-04-24T00:26:17;12.32;;;9.95;;
79122;SDS011;68526;44.600;26.032;2023-04-24T00:26:32;11.90;;;10.00;;
79122;SDS011;68526;44.600;26.032;2023-04-24T00:26:48;12.10;;;9.93;;
79122;SDS011;68526;44.600;26.032;2023-04-24T00:27:04;11.65;;;9.63;;
79122;SDS011;68526;44.600;26.032;2023-04-24T00:27:20;11.35;;;9.95;;
79122;SDS011;68526;44.600;26.032;2023-04-24T00:27:37;10.90;;;9.73;;
79122;SDS011;68526;44.600;26.032;2023-04-24T00:27:53;11.20;;;9.70;;
79122;SDS011;68526;44.600;26.032;2023-04-24T00:28:09;11.55;;;9.85;;
79122;SDS011;68526;44.600;26.032;2023-04-24T00:28:25;12.02;;;10.30;;
79122;SDS011;68526;44.600;26.032;2023-04-24T00:28:41;12.93;;;10.80;;
79122;SDS011;68526;44.600;26.032;2023-04-24T00:28:57;11.95;;;10.38;;
79122;SDS011;68526;44.600;26.032;2023-04-24T00:29:14;11.98;;;10.23;;
79122;SDS011;68526;44.600;26.032;2023-04-24T00:29:29;12.15;;;10.05;;
79122;SDS011;68526;44.600;26.032;2023-04-24T00:29:45;11.37;;;10.20;;
79122;SDS011;68526;44.600;26.032;2023-04-24T00:30:01;11.60;;;10.35;;
79122;SDS011;68526;44.600;26.032;2023-04-24T00:30:18;12.25;;;9.70;;
79122;SDS011;68526;44.600;26.032;2023-04-24T00:30:33;12.97;;;9.67;;
79122;SDS011;68526;44.600;26.032;2023-04-24T00:30:51;13.75;;;10.27;;
79122;SDS011;68526;44.600;26.032;2023-04-24T00:31:06;13.30;;;10.43;;
79122;SDS011;68526;44.600;26.032;2023-04-24T00:31:22;12.23;;;9.70;;
79122;SDS011;68526;44.600;26.032;2023-04-24T00:31:38;12.05;;;9.90;;
79122;SDS011;68526;44.600;26.032;2023-04-24T00:31:55;11.13;;;10.02;;
79122;SDS011;68526;44.600;26.032;2023-04-24T00:32:11;10.82;;;9.70;;
79122;SDS011;68526;44.600;26.032;2023-04-24T00:32:27;10.88;;;9.55;;
79122;SDS011;68526;44.600;26.032;2023-04-24T00:32:43;11.90;;;9.85;;
79122;SDS011;68526;44.600;26.032;2023-04-24T00:32:59;13.05;;;10.38;;
79122;SDS011;68526;44.600;26.032;2023-04-24T00:33:15;12.40;;;10.07;;
79122;SDS011;68526;44.600;26.032;2023-04-24T00:33:31;13.48;;;10.32;;
79122;SDS011;68526;44.600;26.032;2023-04-24T00:33:47;13.10;;;10.48;;
79122;SDS011;68526;44.600;26.032;2023-04-24T00:34:03;11.82;;;10.20;;
79122;SDS011;68526;44.600;26.032;2023-04-24T00:34:20;12.40;;;10.38;;
79122;SDS011;68526;44.600;26.032;2023-04-24T00:34:36;12.98;;;10.45;;
79122;SDS011;68526;44.600;26.032;2023-04-24T00:34:52;12.07;;;10.43;;
79122;SDS011;68526;44.600;26.032;2023-04-24T00:35:08;11.60;;;10.40;;
79122;SDS011;68526;44.600;26.032;2023-04-24T00:35:24;12.17;;;10.50;;
79122;SDS011;68526;44.600;26.032;2023-04-24T00:35:39;11.52;;;10.27;;
79122;SDS011;68526;44.600;26.032;2023-04-24T00:35:56;12.00;;;10.10;;
79122;SDS011;68526;44.600;26.032;2023-04-24T00:36:12;13.02;;;10.15;;
79122;SDS011;68526;44.600;26.032;2023-04-24T00:36:28;13.00;;;9.85;;
79122;SDS011;68526;44.600;26.032;2023-04-24T00:36:45;13.25;;;9.93;;
79122;SDS011;68526;44.600;26.032;2023-04-24T00:37:03;11.07;;;9.20;;
79122;SDS011;68526;44.600;26.032;2023-04-24T00:37:20;11.38;;;9.73;;
79122;SDS011;68526;44.600;26.032;2023-04-24T00:37:36;11.95;;;10.20;;
79122;SDS011;68526;44.600;26.032;2023-04-24T00:37:51;11.88;;;10.10;;
79122;SDS011;68526;44.600;26.032;2023-04-24T00:38:07;13.35;;;10.45;;
79122;SDS011;68526;44.600;26.032;2023-04-24T00:38:23;13.87;;;10.77;;
79122;SDS011;68526;44.600;26.032;2023-04-24T00:38:39;13.50;;;10.80;;
79122;SDS011;68526;44.600;26.032;2023-04-24T00:38:56;13.15;;;10.57;;
79122;SDS011;68526;44.600;26.032;2023-04-24T00:39:12;11.82;;;10.38;;
79122;SDS011;68526;44.600;26.032;2023-04-24T00:39:28;11.60;;;10.27;;
79122;SDS011;68526;44.600;26.032;2023-04-24T00:39:44;11.57;;;10.32;;
79122;SDS011;68526;44.600;26.032;2023-04-24T00:40:00;12.73;;;10.27;;
79122;SDS011;68526;44.600;26.032;2023-04-24T00:40:15;13.00;;;9.80;;
79122;SDS011;68526;44.600;26.032;2023-04-24T00:40:32;12.40;;;9.98;;
79122;SDS011;68526;44.600;26.032;2023-04-24T00:40:48;12.52;;;9.93;;
79122;SDS011;68526;44.600;26.032;2023-04-24T00:41:05;13.55;;;10.07;;
79122;SDS011;68526;44.600;26.032;2023-04-24T00:41:21;15.75;;;10.70;;
79122;SDS011;68526;44.600;26.032;2023-04-24T00:41:37;14.63;;;10.80;;
79122;SDS011;68526;44.600;26.032;2023-04-24T00:41:54;11.68;;;10.38;;
79122;SDS011;68526;44.600;26.032;2023-04-24T00:42:11;11.73;;;10.48;;
79122;SDS011;68526;44.600;26.032;2023-04-24T00:42:27;12.73;;;10.30;;
79122;SDS011;68526;44.600;26.032;2023-04-24T00:42:44;13.02;;;9.88;;
79122;SDS011;68526;44.600;26.032;2023-04-24T00:43:00;12.88;;;10.05;;
79122;SDS011;68526;44.600;26.032;2023-04-24T00:43:16;13.55;;;10.15;;
79122;SDS011;68526;44.600;26.032;2023-04-24T00:43:32;12.25;;;10.07;;
79122;SDS011;68526;44.600;26.032;2023-04-24T00:43:48;11.70;;;10.50;;
79122;SDS011;68526;44.600;26.032;2023-04-24T00:44:04;12.32;;;10.88;;
79122;SDS011;68526;44.600;26.032;2023-04-24T00:44:20;12.10;;;10.82;;
79122;SDS011;68526;44.600;26.032;2023-04-24T00:44:36;11.52;;;10.32;;
79122;SDS011;68526;44.600;26.032;2023-04-24T00:44:52;11.48;;;10.20;;
79122;SDS011;68526;44.600;26.032;2023-04-24T00:45:09;12.13;;;10.30;;
79122;SDS011;68526;44.600;26.032;2023-04-24T00:45:26;12.20;;;10.85;;
79122;SDS011;68526;44.600;26.032;2023-04-24T00:45:41;13.30;;;10.85;;
79122;SDS011;68526;44.600;26.032;2023-04-24T00:45:58;12.73;;;10.15;;
79122;SDS011;68526;44.600;26.032;2023-04-24T00:46:14;11.50;;;10.27;;
79122;SDS011;68526;44.600;26.032;2023-04-24T00:46:32;11.27;;;10.18;;
79122;SDS011;68526;44.600;26.032;2023-04-24T00:46:48;11.68;;;10.13;;
79122;SDS011;68526;44.600;26.032;2023-04-24T00:47:09;11.38;;;10.00;;
79122;SDS011;68526;44.600;26.032;2023-04-24T00:47:27;11.30;;;10.10;;
79122;SDS011;68526;44.600;26.032;2023-04-24T00:47:43;12.55;;;10.38;;
79122;SDS011;68526;44.600;26.032;2023-04-24T00:48:00;12.43;;;10.02;;
79122;SDS011;68526;44.600;26.032;2023-04-24T00:48:18;12.75;;;10.50;;
79122;SDS011;68526;44.600;26.032;2023-04-24T00:48:35;13.05;;;10.32;;
79122;SDS011;68526;44.600;26.032;2023-04-24T00:48:52;11.77;;;10.50;;
79122;SDS011;68526;44.600;26.032;2023-04-24T00:49:08;12.00;;;10.70;;
79122;SDS011;68526;44.600;26.032;2023-04-24T00:49:24;12.63;;;10.43;;
79122;SDS011;68526;44.600;26.032;2023-04-24T00:49:40;12.85;;;10.20;;
79122;SDS011;68526;44.600;26.032;2023-04-24T00:49:57;12.48;;;10.77;;
79122;SDS011;68526;44.600;26.032;2023-04-24T00:50:13;14.60;;;11.15;;
79122;SDS011;68526;44.600;26.032;2023-04-24T00:50:30;14.00;;;10.27;;
79122;SDS011;68526;44.600;26.032;2023-04-24T00:50:46;12.18;;;9.70;;
79122;SDS011;68526;44.600;26.032;2023-04-24T00:51:02;11.43;;;9.70;;
79122;SDS011;68526;44.600;26.032;2023-04-24T00:51:19;10.93;;;9.63;;
79122;SDS011;68526;44.600;26.032;2023-04-24T00:51:36;11.23;;;10.13;;
79122;SDS011;68526;44.600;26.032;2023-04-24T00:51:51;12.13;;;10.27;;
79122;SDS011;68526;44.600;26.032;2023-04-24T00:52:10;13.90;;;10.48;;
79122;SDS011;68526;44.600;26.032;2023-04-24T00:52:27;13.05;;;10.82;;
79122;SDS011;68526;44.600;26.032;2023-04-24T00:52:43;13.20;;;10.80;;
79122;SDS011;68526;44.600;26.032;2023-04-24T00:53:00;12.88;;;10.57;;
79122;SDS011;68526;44.600;26.032;2023-04-24T00:53:16;12.52;;;10.45;;
79122;SDS011;68526;44.600;26.032;2023-04-24T00:53:32;12.27;;;10.10;;
79122;SDS011;68526;44.600;26.032;2023-04-24T00:53:48;11.32;;;9.93;;
79122;SDS011;68526;44.600;26.032;2023-04-24T00:54:03;12.18;;;10.60;;
79122;SDS011;68526;44.600;26.032;2023-04-24T00:54:19;14.50;;;10.77;;
79122;SDS011;68526;44.600;26.032;2023-04-24T00:54:36;13.63;;;10.52;;
79122;SDS011;68526;44.600;26.032;2023-04-24T00:54:52;12.55;;;10.32;;
79122;SDS011;68526;44.600;26.032;2023-04-24T00:55:08;13.30;;;10.53;;
79122;SDS011;68526;44.600;26.032;2023-04-24T00:55:24;13.90;;;10.70;;
79122;SDS011;68526;44.600;26.032;2023-04-24T00:55:40;11.77;;;9.98;;
79122;SDS011;68526;44.600;26.032;2023-04-24T00:55:56;11.75;;;9.93;;
79122;SDS011;68526;44.600;26.032;2023-04-24T00:56:14;12.82;;;10.10;;
79122;SDS011;68526;44.600;26.032;2023-04-24T00:56:30;12.57;;;10.13;;
79122;SDS011;68526;44.600;26.032;2023-04-24T00:56:46;12.75;;;10.20;;
79122;SDS011;68526;44.600;26.032;2023-04-24T00:57:02;12.68;;;10.25;;
79122;SDS011;68526;44.600;26.032;2023-04-24T00:57:18;11.32;;;10.13;;
79122;SDS011;68526;44.600;26.032;2023-04-24T00:57:35;12.13;;;10.00;;
79122;SDS011;68526;44.600;26.032;2023-04-24T00:57:51;12.80;;;10.25;;
79122;SDS011;68526;44.600;26.032;2023-04-24T00:58:08;12.68;;;10.20;;
79122;SDS011;68526;44.600;26.032;2023-04-24T00:58:24;12.17;;;10.10;;
79122;SDS011;68526;44.600;26.032;2023-04-24T00:58:40;12.15;;;10.13;;
79122;SDS011;68526;44.600;26.032;2023-04-24T00:58:56;13.55;;;10.45;;
79122;SDS011;68526;44.600;26.032;2023-04-24T00:59:14;12.45;;;10.25;;
79122;SDS011;68526;44.600;26.032;2023-04-24T00:59:31;12.38;;;10.25;;
79122;SDS011;68526;44.600;26.032;2023-04-24T00:59:47;12.50;;;10.68;;
79122;SDS011;68526;44.600;26.032;2023-04-24T01:00:04;12.05;;;10.45;;
79122;SDS011;68526;44.600;26.032;2023-04-24T01:00:21;11.27;;;9.95;;
79122;SDS011;68526;44.600;26.032;2023-04-24T01:00:37;11.30;;;10.10;;
79122;SDS011;68526;44.600;26.032;2023-04-24T01:00:54;11.68;;;10.38;;
79122;SDS011;68526;44.600;26.032;2023-04-24T01:01:12;13.18;;;11.13;;
79122;SDS011;68526;44.600;26.032;2023-04-24T01:01:29;13.27;;;10.85;;
79122;SDS011;68526;44.600;26.032;2023-04-24T01:01:45;11.82;;;10.48;;
79122;SDS011;68526;44.600;26.032;2023-04-24T01:02:01;11.18;;;9.95;;
79122;SDS011;68526;44.600;26.032;2023-04-24T01:02:18;11.65;;;10.20;;
79122;SDS011;68526;44.600;26.032;2023-04-24T01:02:36;12.35;;;10.60;;
79122;SDS011;68526;44.600;26.032;2023-04-24T01:02:55;12.43;;;10.35;;
79122;SDS011;68526;44.600;26.032;2023-04-24T01:03:12;12.93;;;10.10;;
79122;SDS011;68526;44.600;26.032;2023-04-24T01:03:29;12.82;;;9.88;;
79122;SDS011;68526;44.600;26.032;2023-04-24T01:03:46;12.35;;;10.25;;
79122;SDS011;68526;44.600;26.032;2023-04-24T01:04:04;12.32;;;10.55;;
79122;SDS011;68526;44.600;26.032;2023-04-24T01:04:21;12.27;;;10.50;;
79122;SDS011;68526;44.600;26.032;2023-04-24T01:04:37;11.95;;;10.35;;
79122;SDS011;68526;44.600;26.032;2023-04-24T01:04:53;10.90;;;9.80;;
79122;SDS011;68526;44.600;26.032;2023-04-24T01:05:09;10.52;;;9.40;;
79122;SDS011;68526;44.600;26.032;2023-04-24T01:05:26;11.68;;;9.77;;
79122;SDS011;68526;44.600;26.032;2023-04-24T01:05:43;12.60;;;9.98;;
79122;SDS011;68526;44.600;26.032;2023-04-24T01:05:59;11.63;;;9.63;;
79122;SDS011;68526;44.600;26.032;2023-04-24T01:06:15;13.23;;;9.90;;
79122;SDS011;68526;44.600;26.032;2023-04-24T01:06:32;13.70;;;10.27;;
79122;SDS011;68526;44.600;26.032;2023-04-24T01:06:49;14.25;;;10.60;;
79122;SDS011;68526;44.600;26.032;2023-04-24T01:07:05;14.35;;;10.30;;
79122;SDS011;68526;44.600;26.032;2023-04-24T01:07:27;13.02;;;10.13;;
79122;SDS011;68526;44.600;26.032;2023-04-24T01:07:43;11.07;;;9.80;;
79122;SDS011;68526;44.600;26.032;2023-04-24T01:08:00;12.43;;;10.25;;
79122;SDS011;68526;44.600;26.032;2023-04-24T01:08:17;12.85;;;11.02;;
79122;SDS011;68526;44.600;26.032;2023-04-24T01:08:33;11.75;;;10.43;;
79122;SDS011;68526;44.600;26.032;2023-04-24T01:08:52;12.80;;;10.20;;
79122;SDS011;68526;44.600;26.032;2023-04-24T01:09:08;12.73;;;10.45;;
79122;SDS011;68526;44.600;26.032;2023-04-24T01:09:26;12.00;;;10.65;;
79122;SDS011;68526;44.600;26.032;2023-04-24T01:09:42;12.20;;;10.80;;
79122;SDS011;68526;44.600;26.032;2023-04-24T01:10:02;12.02;;;10.50;;
79122;SDS011;68526;44.600;26.032;2023-04-24T01:10:18;12.77;;;10.80;;
79122;SDS011;68526;44.600;26.032;2023-04-24T01:10:35;13.10;;;10.75;;
79122;SDS011;68526;44.600;26.032;2023-04-24T01:10:53;13.82;;;10.43;;
79122;SDS011;68526;44.600;26.032;2023-04-24T01:11:10;13.90;;;10.57;;
79122;SDS011;68526;44.600;26.032;2023-04-24T01:11:26;12.18;;;10.70;;
79122;SDS011;68526;44.600;26.032;2023-04-24T01:11:43;12.10;;;10.82;;
79122;SDS011;68526;44.600;26.032;2023-04-24T01:12:00;13.68;;;10.93;;
79122;SDS011;68526;44.600;26.032;2023-04-24T01:12:16;14.15;;;10.68;;
79122;SDS011;68526;44.600;26.032;2023-04-24T01:12:33;12.00;;;10.52;;
79122;SDS011;68526;44.600;26.032;2023-04-24T01:12:49;11.63;;;10.43;;
79122;SDS011;68526;44.600;26.032;2023-04-24T01:13:06;11.82;;;10.38;;
79122;SDS011;68526;44.600;26.032;2023-04-24T01:13:24;12.40;;;10.35;;
79122;SDS011;68526;44.600;26.032;2023-04-24T01:13:40;13.63;;;10.85;;
79122;SDS011;68526;44.600;26.032;2023-04-24T01:13:56;12.80;;;10.93;;
79122;SDS011;68526;44.600;26.032;2023-04-24T01:14:13;12.82;;;10.95;;
79122;SDS011;68526;44.600;26.032;2023-04-24T01:14:29;13.93;;;10.55;;
79122;SDS011;68526;44.600;26.032;2023-04-24T01:14:46;14.55;;;10.38;;
79122;SDS011;68526;44.600;26.032;2023-04-24T01:15:03;14.23;;;10.98;;
79122;SDS011;68526;44.600;26.032;2023-04-24T01:15:20;12.52;;;10.73;;
79122;SDS011;68526;44.600;26.032;2023-04-24T01:15:36;13.90;;;10.93;;
79122;SDS011;68526;44.600;26.032;2023-04-24T01:15:52;14.73;;;10.55;;
79122;SDS011;68526;44.600;26.032;2023-04-24T01:16:07;14.85;;;10.45;;
79122;SDS011;68526;44.600;26.032;2023-04-24T01:16:23;13.00;;;10.25;;
79122;SDS011;68526;44.600;26.032;2023-04-24T01:16:41;11.55;;;10.35;;
79122;SDS011;68526;44.600;26.032;2023-04-24T01:16:57;14.02;;;10.70;;
79122;SDS011;68526;44.600;26.032;2023-04-24T01:17:13;15.68;;;10.60;;
79122;SDS011;68526;44.600;26.032;2023-04-24T01:17:28;14.10;;;10.80;;
79122;SDS011;68526;44.600;26.032;2023-04-24T01:17:44;11.90;;;10.65;;
79122;SDS011;68526;44.600;26.032;2023-04-24T01:18:00;12.27;;;10.93;;
79122;SDS011;68526;44.600;26.032;2023-04-24T01:18:17;12.23;;;10.60;;
79122;SDS011;68526;44.600;26.032;2023-04-24T01:18:33;11.40;;;10.20;;
79122;SDS011;68526;44.600;26.032;2023-04-24T01:18:49;12.17;;;10.67;;
79122;SDS011;68526;44.600;26.032;2023-04-24T01:19:05;13.48;;;11.00;;
79122;SDS011;68526;44.600;26.032;2023-04-24T01:19:22;12.82;;;10.95;;
79122;SDS011;68526;44.600;26.032;2023-04-24T01:19:38;13.13;;;10.88;;
79122;SDS011;68526;44.600;26.032;2023-04-24T01:19:53;12.80;;;10.88;;
79122;SDS011;68526;44.600;26.032;2023-04-24T01:20:11;13.35;;;10.90;;
79122;SDS011;68526;44.600;26.032;2023-04-24T01:20:28;13.18;;;10.50;;
79122;SDS011;68526;44.600;26.032;2023-04-24T01:20:45;12.43;;;10.32;;
79122;SDS011;68526;44.600;26.032;2023-04-24T01:21:02;12.20;;;10.30;;
79122;SDS011;68526;44.600;26.032;2023-04-24T01:21:19;11.80;;;9.98;;
79122;SDS011;68526;44.600;26.032;2023-04-24T01:21:36;12.98;;;10.27;;
79122;SDS011;68526;44.600;26.032;2023-04-24T01:21:54;11.73;;;9.93;;
79122;SDS011;68526;44.600;26.032;2023-04-24T01:22:15;11.38;;;10.13;;
79122;SDS011;68526;44.600;26.032;2023-04-24T01:22:31;12.00;;;10.25;;
79122;SDS011;68526;44.600;26.032;2023-04-24T01:22:48;11.40;;;10.15;;
79122;SDS011;68526;44.600;26.032;2023-04-24T01:23:05;11.32;;;10.10;;
79122;SDS011;68526;44.600;26.032;2023-04-24T01:23:21;12.88;;;10.25;;
79122;SDS011;68526;44.600;26.032;2023-04-24T01:23:37;12.63;;;9.88;;
79122;SDS011;68526;44.600;26.032;2023-04-24T01:23:53;11.23;;;9.63;;
79122;SDS011;68526;44.600;26.032;2023-04-24T01:24:09;12.30;;;10.20;;
79122;SDS011;68526;44.600;26.032;2023-04-24T01:24:25;13.18;;;10.60;;
79122;SDS011;68526;44.600;26.032;2023-04-24T01:24:41;12.50;;;10.40;;
79122;SDS011;68526;44.600;26.032;2023-04-24T01:24:58;12.32;;;10.43;;
79122;SDS011;68526;44.600;26.032;2023-04-24T01:25:14;12.30;;;10.57;;
79122;SDS011;68526;44.600;26.032;2023-04-24T01:25:30;13.48;;;10.93;;
79122;SDS011;68526;44.600;26.032;2023-04-24T01:25:46;14.18;;;11.05;;
79122;SDS011;68526;44.600;26.032;2023-04-24T01:26:04;12.15;;;10.20;;
79122;SDS011;68526;44.600;26.032;2023-04-24T01:26:21;11.50;;;10.13;;
79122;SDS011;68526;44.600;26.032;2023-04-24T01:26:37;12.40;;;10.55;;
79122;SDS011;68526;44.600;26.032;2023-04-24T01:26:53;13.57;;;10.40;;
79122;SDS011;68526;44.600;26.032;2023-04-24T01:27:09;12.93;;;10.27;;
79122;SDS011;68526;44.600;26.032;2023-04-24T01:27:26;12.00;;;10.43;;
79122;SDS011;68526;44.600;26.032;2023-04-24T01:27:41;11.82;;;10.35;;
79122;SDS011;68526;44.600;26.032;2023-04-24T01:27:58;11.32;;;9.95;;
79122;SDS011;68526;44.600;26.032;2023-04-24T01:28:14;11.18;;;9.55;;
79122;SDS011;68526;44.600;26.032;2023-04-24T01:28:31;11.77;;;10.32;;
79122;SDS011;68526;44.600;26.032;2023-04-24T01:28:47;11.95;;;10.65;;
79122;SDS011;68526;44.600;26.032;2023-04-24T01:29:03;11.93;;;10.50;;
79122;SDS011;68526;44.600;26.032;2023-04-24T01:29:19;12.13;;;10.02;;
79122;SDS011;68526;44.600;26.032;2023-04-24T01:29:36;12.68;;;10.02;;
79122;SDS011;68526;44.600;26.032;2023-04-24T01:29:52;11.82;;;10.00;;
79122;SDS011;68526;44.600;26.032;2023-04-24T01:30:08;11.35;;;10.10;;
79122;SDS011;68526;44.600;26.032;2023-04-24T01:30:26;11.38;;;10.18;;
79122;SDS011;68526;44.600;26.032;2023-04-24T01:30:42;11.02;;;9.90;;
79122;SDS011;68526;44.600;26.032;2023-04-24T01:31:01;11.25;;;10.05;;
79122;SDS011;68526;44.600;26.032;2023-04-24T01:31:17;11.55;;;10.32;;
79122;SDS011;68526;44.600;26.032;2023-04-24T01:31:33;11.35;;;10.15;;
79122;SDS011;68526;44.600;26.032;2023-04-24T01:31:49;11.70;;;10.48;;
79122;SDS011;68526;44.600;26.032;2023-04-24T01:32:06;12.32;;;10.77;;
79122;SDS011;68526;44.600;26.032;2023-04-24T01:32:23;12.70;;;10.40;;
79122;SDS011;68526;44.600;26.032;2023-04-24T01:32:39;12.48;;;9.90;;
79122;SDS011;68526;44.600;26.032;2023-04-24T01:32:59;12.68;;;9.80;;
79122;SDS011;68526;44.600;26.032;2023-04-24T01:33:15;13.10;;;10.13;;
79122;SDS011;68526;44.600;26.032;2023-04-24T01:33:32;12.48;;;10.43;;
79122;SDS011;68526;44.600;26.032;2023-04-24T01:33:48;11.48;;;10.27;;
79122;SDS011;68526;44.600;26.032;2023-04-24T01:34:06;10.80;;;9.70;;
79122;SDS011;68526;44.600;26.032;2023-04-24T01:34:23;11.95;;;10.25;;
79122;SDS011;68526;44.600;26.032;2023-04-24T01:34:39;12.95;;;10.63;;
79122;SDS011;68526;44.600;26.032;2023-04-24T01:34:55;12.27;;;10.50;;
79122;SDS011;68526;44.600;26.032;2023-04-24T01:35:11;13.60;;;10.45;;
79122;SDS011;68526;44.600;26.032;2023-04-24T01:35:28;14.43;;;10.52;;